sensor_id;sensor_type;location;lat;lon;timestamp;pressure;altitude;pressure_sealevel;temperature
70050;BMP180;57391;51.306;22.680;2022-11-20T00:01:33;99524.20;;;-4.50
70050;BMP180;57391;51.306;22.680;2022-11-20T00:04:01;99522.40;;;-4.50
70050;BMP180;57391;51.306;22.680;2022-11-20T00:06:30;99520.60;;;-4.60
70050;BMP180;57391;51.306;22.680;2022-11-20T00:08:59;99527.40;;;-4.60
70050;BMP180;57391;51.306;22.680;2022-11-20T00:11:30;99534.60;;;-4.70
70050;BMP180;57391;51.306;22.680;2022-11-20T00:14:00;99531.40;;;-4.70
70050;BMP180;57391;51.306;22.680;2022-11-20T00:16:31;99535.00;;;-4.74
70050;BMP180;57391;51.306;22.680;2022-11-20T00:19:00;99528.80;;;-4.74
70050;BMP180;57391;51.306;22.680;2022-11-20T00:21:29;99526.40;;;-4.70
70050;BMP180;57391;51.306;22.680;2022-11-20T00:23:57;99529.40;;;-4.70
70050;BMP180;57391;51.306;22.680;2022-11-20T00:26:27;99527.40;;;-4.70
70050;BMP180;57391;51.306;22.680;2022-11-20T00:28:59;99518.40;;;-4.70
70050;BMP180;57391;51.306;22.680;2022-11-20T00:31:29;99519.40;;;-4.70
70050;BMP180;57391;51.306;22.680;2022-11-20T00:33:56;99513.00;;;-4.68
70050;BMP180;57391;51.306;22.680;2022-11-20T00:36:26;99507.00;;;-4.60
70050;BMP180;57391;51.306;22.680;2022-11-20T00:38:58;99505.20;;;-4.60
70050;BMP180;57391;51.306;22.680;2022-11-20T00:41:28;99504.80;;;-4.58
70050;BMP180;57391;51.306;22.680;2022-11-20T00:43:56;99497.00;;;-4.50
70050;BMP180;57391;51.306;22.680;2022-11-20T00:46:26;99495.00;;;-4.50
70050;BMP180;57391;51.306;22.680;2022-11-20T00:48:54;99500.60;;;-4.50
70050;BMP180;57391;51.306;22.680;2022-11-20T00:51:24;99499.00;;;-4.50
70050;BMP180;57391;51.306;22.680;2022-11-20T00:53:51;99494.20;;;-4.50
70050;BMP180;57391;51.306;22.680;2022-11-20T00:56:19;99496.20;;;-4.50
70050;BMP180;57391;51.306;22.680;2022-11-20T00:58:50;99500.60;;;-4.50
70050;BMP180;57391;51.306;22.680;2022-11-20T01:01:22;99495.20;;;-4.50
70050;BMP180;57391;51.306;22.680;2022-11-20T01:03:54;99487.80;;;-4.52
70050;BMP180;57391;51.306;22.680;2022-11-20T01:06:35;99487.80;;;-4.60
70050;BMP180;57391;51.306;22.680;2022-11-20T01:09:07;99487.80;;;-4.58
70050;BMP180;57391;51.306;22.680;2022-11-20T01:11:41;99489.20;;;-4.54
70050;BMP180;57391;51.306;22.680;2022-11-20T01:14:17;99492.80;;;-4.50
70050;BMP180;57391;51.306;22.680;2022-11-20T01:16:49;99490.60;;;-4.50
70050;BMP180;57391;51.306;22.680;2022-11-20T01:19:25;99485.60;;;-4.40
70050;BMP180;57391;51.306;22.680;2022-11-20T01:21:53;99485.60;;;-4.40
70050;BMP180;57391;51.306;22.680;2022-11-20T01:24:22;99487.00;;;-4.40
70050;BMP180;57391;51.306;22.680;2022-11-20T01:26:51;99480.40;;;-4.36
70050;BMP180;57391;51.306;22.680;2022-11-20T01:29:24;99476.40;;;-4.32
70050;BMP180;57391;51.306;22.680;2022-11-20T01:31:52;99469.80;;;-4.30
70050;BMP180;57391;51.306;22.680;2022-11-20T01:34:21;99473.00;;;-4.22
70050;BMP180;57391;51.306;22.680;2022-11-20T01:36:49;99462.00;;;-4.20
70050;BMP180;57391;51.306;22.680;2022-11-20T01:39:22;99465.00;;;-4.12
70050;BMP180;57391;51.306;22.680;2022-11-20T01:41:52;99461.40;;;-4.10
70050;BMP180;57391;51.306;22.680;2022-11-20T01:47:37;99454.80;;;-4.00
70050;BMP180;57391;51.306;22.680;2022-11-20T01:50:26;99460.60;;;-3.90
70050;BMP180;57391;51.306;22.680;2022-11-20T01:53:02;99454.20;;;-3.88
70050;BMP180;57391;51.306;22.680;2022-11-20T01:55:34;99451.60;;;-3.80
70050;BMP180;57391;51.306;22.680;2022-11-20T01:58:04;99446.40;;;-3.76
70050;BMP180;57391;51.306;22.680;2022-11-20T02:00:31;99445.20;;;-3.70
70050;BMP180;57391;51.306;22.680;2022-11-20T02:03:07;99447.40;;;-3.62
70050;BMP180;57391;51.306;22.680;2022-11-20T02:05:40;99448.60;;;-3.56
70050;BMP180;57391;51.306;22.680;2022-11-20T02:08:08;99450.20;;;-3.50
70050;BMP180;57391;51.306;22.680;2022-11-20T02:10:35;99448.00;;;-3.40
70050;BMP180;57391;51.306;22.680;2022-11-20T02:13:03;99447.40;;;-3.40
70050;BMP180;57391;51.306;22.680;2022-11-20T02:15:49;99450.60;;;-3.32
70050;BMP180;57391;51.306;22.680;2022-11-20T02:18:20;99453.20;;;-3.30
70050;BMP180;57391;51.306;22.680;2022-11-20T02:21:07;99456.40;;;-3.30
70050;BMP180;57391;51.306;22.680;2022-11-20T02:24:06;99457.40;;;-3.30
70050;BMP180;57391;51.306;22.680;2022-11-20T02:26:42;99458.80;;;-3.20
70050;BMP180;57391;51.306;22.680;2022-11-20T02:29:11;99461.20;;;-3.20
70050;BMP180;57391;51.306;22.680;2022-11-20T02:31:42;99458.00;;;-3.20
70050;BMP180;57391;51.306;22.680;2022-11-20T02:34:10;99461.80;;;-3.10
70050;BMP180;57391;51.306;22.680;2022-11-20T02:36:41;99454.20;;;-3.00
70050;BMP180;57391;51.306;22.680;2022-11-20T02:39:11;99448.40;;;-3.00
70050;BMP180;57391;51.306;22.680;2022-11-20T02:41:40;99450.60;;;-2.98
70050;BMP180;57391;51.306;22.680;2022-11-20T02:44:07;99452.20;;;-2.90
70050;BMP180;57391;51.306;22.680;2022-11-20T02:46:34;99448.80;;;-2.90
70050;BMP180;57391;51.306;22.680;2022-11-20T02:49:03;99448.40;;;-2.90
70050;BMP180;57391;51.306;22.680;2022-11-20T02:51:32;99452.00;;;-2.90
70050;BMP180;57391;51.306;22.680;2022-11-20T02:53:59;99446.80;;;-2.90
70050;BMP180;57391;51.306;22.680;2022-11-20T02:56:26;99444.00;;;-2.90
70050;BMP180;57391;51.306;22.680;2022-11-20T02:58:54;99445.80;;;-2.86
70050;BMP180;57391;51.306;22.680;2022-11-20T03:01:21;99441.20;;;-2.80
70050;BMP180;57391;51.306;22.680;2022-11-20T03:03:49;99443.60;;;-2.80
70050;BMP180;57391;51.306;22.680;2022-11-20T03:06:16;99441.60;;;-2.70
70050;BMP180;57391;51.306;22.680;2022-11-20T03:08:44;99440.60;;;-2.70
70050;BMP180;57391;51.306;22.680;2022-11-20T03:11:11;99442.60;;;-2.72
70050;BMP180;57391;51.306;22.680;2022-11-20T03:13:38;99441.00;;;-2.80
70050;BMP180;57391;51.306;22.680;2022-11-20T03:16:13;99441.20;;;-2.80
70050;BMP180;57391;51.306;22.680;2022-11-20T03:18:42;99451.60;;;-2.80
70050;BMP180;57391;51.306;22.680;2022-11-20T03:21:11;99452.40;;;-2.82
70050;BMP180;57391;51.306;22.680;2022-11-20T03:23:40;99450.40;;;-2.88
70050;BMP180;57391;51.306;22.680;2022-11-20T03:26:14;99447.00;;;-2.80
70050;BMP180;57391;51.306;22.680;2022-11-20T03:28:49;99442.20;;;-2.78
70050;BMP180;57391;51.306;22.680;2022-11-20T03:31:24;99438.60;;;-2.74
70050;BMP180;57391;51.306;22.680;2022-11-20T03:33:52;99447.20;;;-2.70
70050;BMP180;57391;51.306;22.680;2022-11-20T03:36:20;99441.60;;;-2.70
70050;BMP180;57391;51.306;22.680;2022-11-20T03:38:48;99434.80;;;-2.70
70050;BMP180;57391;51.306;22.680;2022-11-20T03:41:19;99436.20;;;-2.70
70050;BMP180;57391;51.306;22.680;2022-11-20T03:46:21;99425.40;;;-2.62
70050;BMP180;57391;51.306;22.680;2022-11-20T03:48:48;99424.00;;;-2.60
70050;BMP180;57391;51.306;22.680;2022-11-20T03:51:31;99429.60;;;-2.60
70050;BMP180;57391;51.306;22.680;2022-11-20T03:54:03;99428.20;;;-2.50
70050;BMP180;57391;51.306;22.680;2022-11-20T03:56:34;99429.60;;;-2.42
70050;BMP180;57391;51.306;22.680;2022-11-20T03:59:03;99427.80;;;-2.40
70050;BMP180;57391;51.306;22.680;2022-11-20T04:01:36;99424.80;;;-2.30
70050;BMP180;57391;51.306;22.680;2022-11-20T04:04:06;99430.00;;;-2.28
70050;BMP180;57391;51.306;22.680;2022-11-20T04:06:37;99422.40;;;-2.20
70050;BMP180;57391;51.306;22.680;2022-11-20T04:09:06;99423.40;;;-2.20
70050;BMP180;57391;51.306;22.680;2022-11-20T04:11:36;99425.00;;;-2.20
70050;BMP180;57391;51.306;22.680;2022-11-20T04:14:06;99419.20;;;-2.20
70050;BMP180;57391;51.306;22.680;2022-11-20T04:16:38;99421.40;;;-2.20
70050;BMP180;57391;51.306;22.680;2022-11-20T04:19:11;99414.00;;;-2.20
70050;BMP180;57391;51.306;22.680;2022-11-20T04:21:39;99418.20;;;-2.22
70050;BMP180;57391;51.306;22.680;2022-11-20T04:24:07;99417.00;;;-2.30
70050;BMP180;57391;51.306;22.680;2022-11-20T04:26:34;99413.20;;;-2.30
70050;BMP180;57391;51.306;22.680;2022-11-20T04:29:02;99412.60;;;-2.30
70050;BMP180;57391;51.306;22.680;2022-11-20T04:31:33;99406.80;;;-2.30
70050;BMP180;57391;51.306;22.680;2022-11-20T04:34:04;99409.20;;;-2.30
70050;BMP180;57391;51.306;22.680;2022-11-20T04:36:32;99400.80;;;-2.40
70050;BMP180;57391;51.306;22.680;2022-11-20T04:39:02;99398.60;;;-2.48
70050;BMP180;57391;51.306;22.680;2022-11-20T04:41:33;99386.40;;;-2.56
70050;BMP180;57391;51.306;22.680;2022-11-20T04:44:03;99384.40;;;-2.60
70050;BMP180;57391;51.306;22.680;2022-11-20T04:46:38;99383.20;;;-2.64
70050;BMP180;57391;51.306;22.680;2022-11-20T04:49:07;99384.60;;;-2.70
70050;BMP180;57391;51.306;22.680;2022-11-20T04:51:35;99378.80;;;-2.72
70050;BMP180;57391;51.306;22.680;2022-11-20T04:54:02;99374.60;;;-2.80
70050;BMP180;57391;51.306;22.680;2022-11-20T04:56:30;99378.20;;;-2.80
70050;BMP180;57391;51.306;22.680;2022-11-20T04:59:01;99375.60;;;-2.90
70050;BMP180;57391;51.306;22.680;2022-11-20T05:01:28;99374.60;;;-2.90
70050;BMP180;57391;51.306;22.680;2022-11-20T05:03:55;99373.20;;;-3.00
70050;BMP180;57391;51.306;22.680;2022-11-20T05:06:23;99379.20;;;-3.00
70050;BMP180;57391;51.306;22.680;2022-11-20T05:08:50;99382.80;;;-3.06
70050;BMP180;57391;51.306;22.680;2022-11-20T05:11:20;99372.80;;;-3.08
70050;BMP180;57391;51.306;22.680;2022-11-20T05:13:49;99366.60;;;-3.08
70050;BMP180;57391;51.306;22.680;2022-11-20T05:16:20;99369.80;;;-3.02
70050;BMP180;57391;51.306;22.680;2022-11-20T05:18:49;99372.20;;;-3.08
70050;BMP180;57391;51.306;22.680;2022-11-20T05:21:17;99366.60;;;-3.10
70050;BMP180;57391;51.306;22.680;2022-11-20T05:23:45;99371.80;;;-3.10
70050;BMP180;57391;51.306;22.680;2022-11-20T05:26:19;99370.60;;;-3.10
70050;BMP180;57391;51.306;22.680;2022-11-20T05:28:49;99366.00;;;-3.10
70050;BMP180;57391;51.306;22.680;2022-11-20T05:31:20;99360.20;;;-3.12
70050;BMP180;57391;51.306;22.680;2022-11-20T05:33:47;99361.60;;;-3.20
70050;BMP180;57391;51.306;22.680;2022-11-20T05:36:16;99351.80;;;-3.20
70050;BMP180;57391;51.306;22.680;2022-11-20T05:38:44;99353.80;;;-3.20
70050;BMP180;57391;51.306;22.680;2022-11-20T05:41:15;99351.40;;;-3.24
70050;BMP180;57391;51.306;22.680;2022-11-20T05:43:45;99351.40;;;-3.30
70050;BMP180;57391;51.306;22.680;2022-11-20T05:46:15;99348.80;;;-3.30
70050;BMP180;57391;51.306;22.680;2022-11-20T05:48:44;99350.60;;;-3.30
70050;BMP180;57391;51.306;22.680;2022-11-20T05:51:15;99351.40;;;-3.30
70050;BMP180;57391;51.306;22.680;2022-11-20T05:53:43;99351.20;;;-3.34
70050;BMP180;57391;51.306;22.680;2022-11-20T05:56:17;99355.20;;;-3.40
70050;BMP180;57391;51.306;22.680;2022-11-20T05:58:46;99350.40;;;-3.40
70050;BMP180;57391;51.306;22.680;2022-11-20T06:01:21;99361.20;;;-3.44
70050;BMP180;57391;51.306;22.680;2022-11-20T06:03:49;99362.80;;;-3.50
70050;BMP180;57391;51.306;22.680;2022-11-20T06:06:18;99370.40;;;-3.50
70050;BMP180;57391;51.306;22.680;2022-11-20T06:08:46;99378.40;;;-3.50
70050;BMP180;57391;51.306;22.680;2022-11-20T06:11:16;99386.00;;;-3.60
70050;BMP180;57391;51.306;22.680;2022-11-20T06:13:44;99383.60;;;-3.60
70050;BMP180;57391;51.306;22.680;2022-11-20T06:16:15;99378.80;;;-3.60
70050;BMP180;57391;51.306;22.680;2022-11-20T06:18:43;99377.00;;;-3.60
70050;BMP180;57391;51.306;22.680;2022-11-20T06:21:14;99376.80;;;-3.68
70050;BMP180;57391;51.306;22.680;2022-11-20T06:23:44;99374.60;;;-3.66
70050;BMP180;57391;51.306;22.680;2022-11-20T06:28:46;99368.40;;;-3.66
70050;BMP180;57391;51.306;22.680;2022-11-20T06:31:16;99363.40;;;-3.68
70050;BMP180;57391;51.306;22.680;2022-11-20T06:33:44;99359.60;;;-3.70
70050;BMP180;57391;51.306;22.680;2022-11-20T06:36:14;99359.40;;;-3.70
70050;BMP180;57391;51.306;22.680;2022-11-20T06:38:43;99350.00;;;-3.62
70050;BMP180;57391;51.306;22.680;2022-11-20T06:41:16;99344.60;;;-3.60
70050;BMP180;57391;51.306;22.680;2022-11-20T06:43:44;99348.40;;;-3.50
70050;BMP180;57391;51.306;22.680;2022-11-20T06:46:14;99361.00;;;-3.30
70050;BMP180;57391;51.306;22.680;2022-11-20T06:48:42;99371.60;;;-3.20
70050;BMP180;57391;51.306;22.680;2022-11-20T06:51:09;99375.20;;;-3.20
70050;BMP180;57391;51.306;22.680;2022-11-20T06:53:37;99373.20;;;-3.14
70050;BMP180;57391;51.306;22.680;2022-11-20T06:56:06;99376.40;;;-3.10
70050;BMP180;57391;51.306;22.680;2022-11-20T06:58:37;99375.00;;;-3.10
70050;BMP180;57391;51.306;22.680;2022-11-20T07:01:08;99375.40;;;-3.02
70050;BMP180;57391;51.306;22.680;2022-11-20T07:03:37;99374.40;;;-3.00
70050;BMP180;57391;51.306;22.680;2022-11-20T07:06:05;99374.20;;;-2.90
70050;BMP180;57391;51.306;22.680;2022-11-20T07:08:34;99369.00;;;-2.80
70050;BMP180;57391;51.306;22.680;2022-11-20T07:11:12;99367.80;;;-2.68
70050;BMP180;57391;51.306;22.680;2022-11-20T07:13:39;99372.60;;;-2.50
70050;BMP180;57391;51.306;22.680;2022-11-20T07:16:08;99366.60;;;-2.40
70050;BMP180;57391;51.306;22.680;2022-11-20T07:18:40;99359.80;;;-2.30
70050;BMP180;57391;51.306;22.680;2022-11-20T07:21:11;99357.80;;;-2.30
70050;BMP180;57391;51.306;22.680;2022-11-20T07:23:42;99363.00;;;-2.20
70050;BMP180;57391;51.306;22.680;2022-11-20T07:26:18;99360.00;;;-2.20
70050;BMP180;57391;51.306;22.680;2022-11-20T07:28:56;99358.40;;;-2.10
70050;BMP180;57391;51.306;22.680;2022-11-20T07:31:23;99356.80;;;-2.00
70050;BMP180;57391;51.306;22.680;2022-11-20T07:33:51;99348.60;;;-1.90
70050;BMP180;57391;51.306;22.680;2022-11-20T07:36:18;99346.40;;;-1.80
70050;BMP180;57391;51.306;22.680;2022-11-20T07:38:45;99337.00;;;-1.70
70050;BMP180;57391;51.306;22.680;2022-11-20T07:41:13;99338.00;;;-1.60
70050;BMP180;57391;51.306;22.680;2022-11-20T07:43:40;99341.80;;;-1.50
70050;BMP180;57391;51.306;22.680;2022-11-20T07:46:07;99338.60;;;-1.40
70050;BMP180;57391;51.306;22.680;2022-11-20T07:48:35;99326.40;;;-1.30
70050;BMP180;57391;51.306;22.680;2022-11-20T07:51:02;99326.60;;;-1.30
70050;BMP180;57391;51.306;22.680;2022-11-20T07:53:29;99330.40;;;-1.20
70050;BMP180;57391;51.306;22.680;2022-11-20T07:56:01;99326.00;;;-1.20
70050;BMP180;57391;51.306;22.680;2022-11-20T07:58:29;99334.40;;;-1.20
70050;BMP180;57391;51.306;22.680;2022-11-20T08:00:57;99334.60;;;-1.20
70050;BMP180;57391;51.306;22.680;2022-11-20T08:03:24;99335.00;;;-1.24
70050;BMP180;57391;51.306;22.680;2022-11-20T08:05:52;99334.40;;;-1.30
70050;BMP180;57391;51.306;22.680;2022-11-20T08:08:20;99327.40;;;-1.30
70050;BMP180;57391;51.306;22.680;2022-11-20T08:10:49;99323.40;;;-1.40
70050;BMP180;57391;51.306;22.680;2022-11-20T08:13:19;99322.80;;;-1.40
70050;BMP180;57391;51.306;22.680;2022-11-20T08:16:05;99325.60;;;-1.48
70050;BMP180;57391;51.306;22.680;2022-11-20T08:18:33;99328.60;;;-1.50
70050;BMP180;57391;51.306;22.680;2022-11-20T08:21:04;99326.40;;;-1.50
70050;BMP180;57391;51.306;22.680;2022-11-20T08:23:32;99326.20;;;-1.50
70050;BMP180;57391;51.306;22.680;2022-11-20T08:26:00;99321.80;;;-1.50
70050;BMP180;57391;51.306;22.680;2022-11-20T08:28:27;99322.40;;;-1.40
70050;BMP180;57391;51.306;22.680;2022-11-20T08:31:02;99321.60;;;-1.40
70050;BMP180;57391;51.306;22.680;2022-11-20T08:33:30;99322.40;;;-1.30
70050;BMP180;57391;51.306;22.680;2022-11-20T08:36:03;99319.20;;;-1.30
70050;BMP180;57391;51.306;22.680;2022-11-20T08:38:32;99317.20;;;-1.22
70050;BMP180;57391;51.306;22.680;2022-11-20T08:41:02;99316.20;;;-1.20
70050;BMP180;57391;51.306;22.680;2022-11-20T08:43:48;99315.80;;;-1.20
70050;BMP180;57391;51.306;22.680;2022-11-20T08:46:16;99307.20;;;-1.10
70050;BMP180;57391;51.306;22.680;2022-11-20T08:48:44;99301.60;;;-1.10
70050;BMP180;57391;51.306;22.680;2022-11-20T08:51:12;99304.40;;;-1.10
70050;BMP180;57391;51.306;22.680;2022-11-20T08:53:40;99297.80;;;-1.10
70050;BMP180;57391;51.306;22.680;2022-11-20T08:56:08;99293.00;;;-1.16
70050;BMP180;57391;51.306;22.680;2022-11-20T08:58:37;99286.80;;;-1.20
70050;BMP180;57391;51.306;22.680;2022-11-20T09:01:05;99283.60;;;-1.20
70050;BMP180;57391;51.306;22.680;2022-11-20T09:03:32;99278.20;;;-1.30
70050;BMP180;57391;51.306;22.680;2022-11-20T09:06:02;99274.20;;;-1.30
70050;BMP180;57391;51.306;22.680;2022-11-20T09:08:31;99263.40;;;-1.28
70050;BMP180;57391;51.306;22.680;2022-11-20T09:10:59;99269.80;;;-1.20
70050;BMP180;57391;51.306;22.680;2022-11-20T09:13:28;99267.40;;;-1.22
70050;BMP180;57391;51.306;22.680;2022-11-20T09:16:07;99262.80;;;-1.20
70050;BMP180;57391;51.306;22.680;2022-11-20T09:18:35;99264.80;;;-1.22
70050;BMP180;57391;51.306;22.680;2022-11-20T09:21:10;99264.80;;;-1.30
70050;BMP180;57391;51.306;22.680;2022-11-20T09:23:39;99272.60;;;-1.20
70050;BMP180;57391;51.306;22.680;2022-11-20T09:26:13;99266.40;;;-1.20
70050;BMP180;57391;51.306;22.680;2022-11-20T09:28:40;99268.20;;;-1.20
70050;BMP180;57391;51.306;22.680;2022-11-20T09:31:17;99273.80;;;-1.16
70050;BMP180;57391;51.306;22.680;2022-11-20T09:33:49;99269.00;;;-1.12
70050;BMP180;57391;51.306;22.680;2022-11-20T09:36:18;99268.60;;;-1.10
70050;BMP180;57391;51.306;22.680;2022-11-20T09:38:48;99268.00;;;-1.10
70050;BMP180;57391;51.306;22.680;2022-11-20T09:47:21;99273.00;;;-0.90
70050;BMP180;57391;51.306;22.680;2022-11-20T09:55:26;99273.40;;;-0.80
70050;BMP180;57391;51.306;22.680;2022-11-20T09:57:57;99272.80;;;-0.80
70050;BMP180;57391;51.306;22.680;2022-11-20T10:00:28;99267.00;;;-0.80
70050;BMP180;57391;51.306;22.680;2022-11-20T10:03:03;99268.40;;;-0.80
70050;BMP180;57391;51.306;22.680;2022-11-20T10:08:25;99273.00;;;-0.70
70050;BMP180;57391;51.306;22.680;2022-11-20T10:11:21;99268.20;;;-0.68
70050;BMP180;57391;51.306;22.680;2022-11-20T10:14:18;99261.60;;;-0.60
70050;BMP180;57391;51.306;22.680;2022-11-20T10:20:15;99272.00;;;-0.50
70050;BMP180;57391;51.306;22.680;2022-11-20T10:23:17;99266.60;;;-0.50
70050;BMP180;57391;51.306;22.680;2022-11-20T10:26:39;99264.20;;;-0.50
70050;BMP180;57391;51.306;22.680;2022-11-20T10:29:18;99266.20;;;-0.60
70050;BMP180;57391;51.306;22.680;2022-11-20T10:32:00;99273.20;;;-0.60
70050;BMP180;57391;51.306;22.680;2022-11-20T10:34:38;99271.80;;;-0.60
70050;BMP180;57391;51.306;22.680;2022-11-20T10:37:16;99272.60;;;-0.60
70050;BMP180;57391;51.306;22.680;2022-11-20T10:42:41;99280.80;;;-0.60
70050;BMP180;57391;51.306;22.680;2022-11-20T10:48:10;99266.60;;;-0.70
70050;BMP180;57391;51.306;22.680;2022-11-20T10:56:47;99262.40;;;-0.70
70050;BMP180;57391;51.306;22.680;2022-11-20T10:59:55;99251.00;;;-0.70
70050;BMP180;57391;51.306;22.680;2022-11-20T11:02:39;99247.20;;;-0.64
70050;BMP180;57391;51.306;22.680;2022-11-20T11:05:22;99241.80;;;-0.60
70050;BMP180;57391;51.306;22.680;2022-11-20T11:07:54;99240.40;;;-0.60
70050;BMP180;57391;51.306;22.680;2022-11-20T11:15:51;99236.80;;;-0.50
70050;BMP180;57391;51.306;22.680;2022-11-20T11:18:29;99229.40;;;-0.50
70050;BMP180;57391;51.306;22.680;2022-11-20T11:21:02;99236.00;;;-0.40
70050;BMP180;57391;51.306;22.680;2022-11-20T11:23:39;99243.60;;;-0.40
70050;BMP180;57391;51.306;22.680;2022-11-20T11:26:23;99237.20;;;-0.40
70050;BMP180;57391;51.306;22.680;2022-11-20T11:29:02;99240.20;;;-0.40
70050;BMP180;57391;51.306;22.680;2022-11-20T11:31:34;99239.00;;;-0.40
70050;BMP180;57391;51.306;22.680;2022-11-20T11:34:10;99239.60;;;-0.40
70050;BMP180;57391;51.306;22.680;2022-11-20T11:36:39;99237.40;;;-0.32
70050;BMP180;57391;51.306;22.680;2022-11-20T11:39:18;99237.80;;;-0.30
70050;BMP180;57391;51.306;22.680;2022-11-20T11:41:47;99236.20;;;-0.20
70050;BMP180;57391;51.306;22.680;2022-11-20T11:44:28;99232.00;;;-0.20
70050;BMP180;57391;51.306;22.680;2022-11-20T11:47:25;99233.20;;;-0.10
70050;BMP180;57391;51.306;22.680;2022-11-20T11:50:19;99225.20;;;-0.10
70050;BMP180;57391;51.306;22.680;2022-11-20T11:53:14;99216.20;;;-0.10
70050;BMP180;57391;51.306;22.680;2022-11-20T11:56:07;99213.40;;;-0.06
70050;BMP180;57391;51.306;22.680;2022-11-20T12:01:37;99213.00;;;0.00
70050;BMP180;57391;51.306;22.680;2022-11-20T12:07:37;99205.40;;;0.02
70050;BMP180;57391;51.306;22.680;2022-11-20T12:10:22;99194.00;;;0.10
70050;BMP180;57391;51.306;22.680;2022-11-20T12:13:01;99190.20;;;0.10
70050;BMP180;57391;51.306;22.680;2022-11-20T12:15:33;99180.60;;;0.10
70050;BMP180;57391;51.306;22.680;2022-11-20T12:18:01;99189.00;;;0.10
70050;BMP180;57391;51.306;22.680;2022-11-20T12:20:37;99183.60;;;0.10
70050;BMP180;57391;51.306;22.680;2022-11-20T12:23:27;99179.20;;;0.10
70050;BMP180;57391;51.306;22.680;2022-11-20T12:26:08;99179.20;;;0.10
70050;BMP180;57391;51.306;22.680;2022-11-20T12:38:26;99156.40;;;0.12
70050;BMP180;57391;51.306;22.680;2022-11-20T12:45:08;99151.20;;;0.20
70050;BMP180;57391;51.306;22.680;2022-11-20T13:00:02;99128.60;;;0.30
70050;BMP180;57391;51.306;22.680;2022-11-20T13:08:02;99136.40;;;0.32
70050;BMP180;57391;51.306;22.680;2022-11-20T13:10:44;99143.20;;;0.30
70050;BMP180;57391;51.306;22.680;2022-11-20T13:13:29;99139.40;;;0.30
70050;BMP180;57391;51.306;22.680;2022-11-20T13:16:20;99141.00;;;0.30
70050;BMP180;57391;51.306;22.680;2022-11-20T13:18:49;99142.60;;;0.38
70050;BMP180;57391;51.306;22.680;2022-11-20T13:21:21;99144.80;;;0.40
70050;BMP180;57391;51.306;22.680;2022-11-20T13:23:49;99145.20;;;0.40
70050;BMP180;57391;51.306;22.680;2022-11-20T13:26:23;99145.80;;;0.42
70050;BMP180;57391;51.306;22.680;2022-11-20T13:29:19;99143.20;;;0.42
70050;BMP180;57391;51.306;22.680;2022-11-20T13:31:48;99147.20;;;0.48
70050;BMP180;57391;51.306;22.680;2022-11-20T13:34:27;99147.40;;;0.50
70050;BMP180;57391;51.306;22.680;2022-11-20T13:36:58;99149.20;;;0.50
70050;BMP180;57391;51.306;22.680;2022-11-20T13:39:33;99151.00;;;0.60
70050;BMP180;57391;51.306;22.680;2022-11-20T13:42:27;99146.80;;;0.60
70050;BMP180;57391;51.306;22.680;2022-11-20T13:45:01;99153.20;;;0.60
70050;BMP180;57391;51.306;22.680;2022-11-20T13:47:29;99152.20;;;0.64
70050;BMP180;57391;51.306;22.680;2022-11-20T13:49:58;99146.20;;;0.60
70050;BMP180;57391;51.306;22.680;2022-11-20T14:01:24;99146.20;;;0.50
70050;BMP180;57391;51.306;22.680;2022-11-20T14:03:53;99146.80;;;0.40
70050;BMP180;57391;51.306;22.680;2022-11-20T14:06:32;99137.00;;;0.40
70050;BMP180;57391;51.306;22.680;2022-11-20T14:09:01;99140.00;;;0.40
70050;BMP180;57391;51.306;22.680;2022-11-20T14:11:30;99138.80;;;0.40
70050;BMP180;57391;51.306;22.680;2022-11-20T14:14:17;99141.40;;;0.40
70050;BMP180;57391;51.306;22.680;2022-11-20T14:16:45;99143.20;;;0.40
70050;BMP180;57391;51.306;22.680;2022-11-20T14:19:28;99136.20;;;0.40
70050;BMP180;57391;51.306;22.680;2022-11-20T14:22:16;99133.80;;;0.40
70050;BMP180;57391;51.306;22.680;2022-11-20T14:24:49;99138.00;;;0.40
70050;BMP180;57391;51.306;22.680;2022-11-20T14:27:27;99133.80;;;0.40
70050;BMP180;57391;51.306;22.680;2022-11-20T14:29:54;99129.00;;;0.40
70050;BMP180;57391;51.306;22.680;2022-11-20T14:32:29;99126.80;;;0.38
70050;BMP180;57391;51.306;22.680;2022-11-20T14:35:08;99125.00;;;0.40
70050;BMP180;57391;51.306;22.680;2022-11-20T14:37:40;99126.60;;;0.40
70050;BMP180;57391;51.306;22.680;2022-11-20T14:40:28;99118.60;;;0.40
70050;BMP180;57391;51.306;22.680;2022-11-20T14:42:57;99110.40;;;0.40
70050;BMP180;57391;51.306;22.680;2022-11-20T14:45:26;99105.20;;;0.40
70050;BMP180;57391;51.306;22.680;2022-11-20T14:47:56;99098.60;;;0.40
70050;BMP180;57391;51.306;22.680;2022-11-20T14:50:28;99106.40;;;0.40
70050;BMP180;57391;51.306;22.680;2022-11-20T14:53:00;99104.20;;;0.40
70050;BMP180;57391;51.306;22.680;2022-11-20T14:55:38;99099.80;;;0.40
70050;BMP180;57391;51.306;22.680;2022-11-20T14:58:30;99103.20;;;0.44
70050;BMP180;57391;51.306;22.680;2022-11-20T15:01:06;99100.80;;;0.42
70050;BMP180;57391;51.306;22.680;2022-11-20T15:03:39;99101.60;;;0.40
70050;BMP180;57391;51.306;22.680;2022-11-20T15:06:12;99105.20;;;0.40
70050;BMP180;57391;51.306;22.680;2022-11-20T15:08:51;99104.20;;;0.40
70050;BMP180;57391;51.306;22.680;2022-11-20T15:11:34;99104.20;;;0.40
70050;BMP180;57391;51.306;22.680;2022-11-20T15:14:06;99098.00;;;0.46
70050;BMP180;57391;51.306;22.680;2022-11-20T15:16:33;99097.80;;;0.42
70050;BMP180;57391;51.306;22.680;2022-11-20T15:19:22;99095.80;;;0.40
70050;BMP180;57391;51.306;22.680;2022-11-20T15:21:50;99093.60;;;0.40
70050;BMP180;57391;51.306;22.680;2022-11-20T15:24:18;99092.80;;;0.40
70050;BMP180;57391;51.306;22.680;2022-11-20T15:26:45;99085.20;;;0.38
70050;BMP180;57391;51.306;22.680;2022-11-20T15:29:15;99091.40;;;0.30
70050;BMP180;57391;51.306;22.680;2022-11-20T15:31:46;99096.20;;;0.30
70050;BMP180;57391;51.306;22.680;2022-11-20T15:34:17;99104.20;;;0.20
70050;BMP180;57391;51.306;22.680;2022-11-20T15:36:45;99101.40;;;0.20
70050;BMP180;57391;51.306;22.680;2022-11-20T15:39:12;99105.20;;;0.20
70050;BMP180;57391;51.306;22.680;2022-11-20T15:41:40;99099.60;;;0.10
70050;BMP180;57391;51.306;22.680;2022-11-20T15:44:08;99105.20;;;0.10
70050;BMP180;57391;51.306;22.680;2022-11-20T15:46:40;99100.40;;;0.10
70050;BMP180;57391;51.306;22.680;2022-11-20T15:49:14;99101.20;;;0.02
70050;BMP180;57391;51.306;22.680;2022-11-20T15:51:51;99096.00;;;0.00
70050;BMP180;57391;51.306;22.680;2022-11-20T15:54:22;99098.40;;;-0.10
70050;BMP180;57391;51.306;22.680;2022-11-20T15:56:50;99105.80;;;-0.10
70050;BMP180;57391;51.306;22.680;2022-11-20T15:59:21;99111.00;;;-0.12